createdAt,value
2022-11-19T00:00:09.375Z,13.98
2022-11-19T00:02:35.769Z,13.96
2022-11-19T00:05:02.146Z,13.94
2022-11-19T00:07:28.503Z,13.91
2022-11-19T00:09:54.887Z,13.89
2022-11-19T00:12:21.213Z,13.87
2022-11-19T00:14:47.559Z,13.87
2022-11-19T00:17:13.878Z,13.85
2022-11-19T00:19:40.256Z,13.84
2022-11-19T00:22:06.573Z,13.83
2022-11-19T00:24:32.961Z,13.82
2022-11-19T00:26:59.325Z,13.81
2022-11-19T00:29:25.662Z,13.79
2022-11-19T00:31:52.065Z,13.76
2022-11-19T00:34:18.436Z,13.75
2022-11-19T00:36:44.791Z,13.72
2022-11-19T00:39:11.163Z,13.70
2022-11-19T00:41:37.473Z,13.69
2022-11-19T00:44:03.824Z,13.98
2022-11-19T00:46:30.146Z,14.06
2022-11-19T00:48:56.534Z,14.04
2022-11-19T00:51:22.864Z,14.01
2022-11-19T00:53:49.213Z,13.98
2022-11-19T00:56:15.590Z,13.96
2022-11-19T00:58:41.979Z,13.94
2022-11-19T01:01:08.412Z,13.92
2022-11-19T01:03:34.724Z,13.90
2022-11-19T01:06:01.080Z,13.89
2022-11-19T01:08:27.422Z,13.87
2022-11-19T01:10:53.783Z,13.84
2022-11-19T01:13:20.195Z,13.82
2022-11-19T01:15:46.515Z,13.80
2022-11-19T01:18:12.901Z,13.78
2022-11-19T01:20:39.278Z,13.76
2022-11-19T01:23:05.590Z,13.75
2022-11-19T01:25:31.946Z,13.73
2022-11-19T01:27:58.288Z,13.71
2022-11-19T01:30:24.655Z,13.70
2022-11-19T01:32:51.035Z,13.67
2022-11-19T01:35:17.390Z,13.66
2022-11-19T01:37:43.808Z,13.64
2022-11-19T01:40:10.128Z,13.63
2022-11-19T01:42:36.517Z,13.61
2022-11-19T01:45:02.878Z,13.60
2022-11-19T01:47:29.225Z,13.58
2022-11-19T01:49:55.591Z,13.58
2022-11-19T01:52:21.941Z,13.56
2022-11-19T01:54:48.327Z,13.54
2022-11-19T01:57:14.707Z,13.52
2022-11-19T01:59:41.099Z,13.51
2022-11-19T02:02:07.472Z,13.49
2022-11-19T02:04:33.831Z,13.47
2022-11-19T02:07:00.297Z,13.46
2022-11-19T02:09:26.598Z,13.44
2022-11-19T02:11:52.951Z,13.42
2022-11-19T02:14:19.278Z,13.41
2022-11-19T02:16:45.650Z,13.39
2022-11-19T02:19:11.962Z,13.37
2022-11-19T02:21:38.349Z,13.35
2022-11-19T02:24:04.677Z,13.34
2022-11-19T02:26:31.060Z,13.33
2022-11-19T02:28:57.378Z,13.32
2022-11-19T02:31:23.770Z,13.30
2022-11-19T02:33:50.124Z,13.29
2022-11-19T02:36:16.504Z,13.27
2022-11-19T02:38:42.831Z,13.26
2022-11-19T02:41:09.226Z,13.25
2022-11-19T02:43:35.540Z,13.24
2022-11-19T02:46:01.956Z,13.24
2022-11-19T02:48:28.242Z,13.22
2022-11-19T02:50:54.588Z,13.22
2022-11-19T02:53:20.982Z,13.20
2022-11-19T02:55:47.322Z,13.19
2022-11-19T02:58:13.685Z,13.17
2022-11-19T03:00:40.069Z,13.16
2022-11-19T03:03:06.386Z,13.15
2022-11-19T03:05:32.775Z,13.12
2022-11-19T03:07:59.160Z,13.12
2022-11-19T03:10:25.500Z,13.11
2022-11-19T03:12:51.856Z,13.09
2022-11-19T03:15:18.228Z,13.09
2022-11-19T03:17:44.599Z,13.08
2022-11-19T03:20:10.941Z,13.06
2022-11-19T03:22:37.334Z,13.05
2022-11-19T03:25:03.730Z,13.03
2022-11-19T03:27:30.081Z,13.02
2022-11-19T03:29:56.500Z,13.01
2022-11-19T03:32:22.849Z,12.99
2022-11-19T03:34:49.228Z,12.99
2022-11-19T03:37:15.613Z,12.98
2022-11-19T03:39:41.993Z,12.97
2022-11-19T03:42:08.355Z,12.95
2022-11-19T03:44:34.739Z,12.95
2022-11-19T03:47:01.145Z,12.93
2022-11-19T03:49:27.488Z,12.92
2022-11-19T03:51:53.852Z,12.92
2022-11-19T03:54:20.258Z,12.91
2022-11-19T03:56:46.577Z,12.90
2022-11-19T03:59:12.971Z,12.89
2022-11-19T04:01:39.389Z,12.89
2022-11-19T04:04:05.730Z,12.88
2022-11-19T04:06:32.085Z,12.86
2022-11-19T04:08:58.445Z,12.85
2022-11-19T04:13:50.089Z,12.82
2022-11-19T04:16:16.452Z,12.82
2022-11-19T04:18:42.836Z,12.81
2022-11-19T04:21:09.294Z,12.78
2022-11-19T04:23:35.654Z,12.76
2022-11-19T04:26:01.970Z,12.77
2022-11-19T04:28:28.345Z,12.76
2022-11-19T04:30:54.710Z,12.75
2022-11-19T04:33:21.054Z,12.74
2022-11-19T04:35:47.397Z,12.72
2022-11-19T04:38:13.743Z,12.71
2022-11-19T04:40:40.062Z,12.70
2022-11-19T04:43:06.452Z,12.69
2022-11-19T04:45:32.773Z,12.68
2022-11-19T04:47:59.155Z,12.66
2022-11-19T04:50:25.479Z,12.65
2022-11-19T04:52:51.934Z,12.64
2022-11-19T04:55:18.214Z,12.63
2022-11-19T04:57:44.560Z,12.62
2022-11-19T05:00:10.925Z,12.61
2022-11-19T05:02:37.316Z,12.59
2022-11-19T05:05:03.749Z,12.60
2022-11-19T05:07:30.221Z,12.59
2022-11-19T05:09:56.443Z,12.59
2022-11-19T05:12:22.807Z,12.58
2022-11-19T05:14:49.137Z,12.55
2022-11-19T05:17:15.530Z,12.55
2022-11-19T05:19:41.891Z,12.55
2022-11-19T05:22:08.280Z,12.54
2022-11-19T05:24:34.640Z,12.54
2022-11-19T05:27:01.011Z,12.53
2022-11-19T05:29:27.332Z,12.52
2022-11-19T05:31:53.681Z,12.50
2022-11-19T05:34:20.051Z,12.49
2022-11-19T05:36:46.427Z,12.50
2022-11-19T05:39:16.163Z,12.52
2022-11-19T05:41:39.165Z,12.55
2022-11-19T05:44:05.520Z,12.57
2022-11-19T05:46:31.904Z,12.65
2022-11-19T05:48:58.237Z,12.73
2022-11-19T05:51:24.623Z,12.77
2022-11-19T05:53:50.990Z,12.79
2022-11-19T05:56:17.308Z,12.80
2022-11-19T05:58:43.634Z,12.82
2022-11-19T06:01:09.985Z,12.83
2022-11-19T06:03:36.344Z,12.84
2022-11-19T06:06:02.732Z,12.85
2022-11-19T06:08:29.081Z,12.85
2022-11-19T06:10:55.463Z,12.86
2022-11-19T06:13:21.795Z,12.89
2022-11-19T06:15:48.144Z,12.93
2022-11-19T06:18:14.510Z,12.97
2022-11-19T06:20:40.887Z,13.15
2022-11-19T06:23:07.213Z,13.39
2022-11-19T06:25:33.634Z,13.54
2022-11-19T06:27:59.954Z,13.61
2022-11-19T06:30:26.305Z,13.62
2022-11-19T06:32:52.634Z,13.62
2022-11-19T06:35:19.124Z,13.65
2022-11-19T06:37:45.436Z,13.74
2022-11-19T06:40:11.825Z,13.87
2022-11-19T06:42:38.212Z,13.92
2022-11-19T06:45:04.532Z,13.92
2022-11-19T06:47:30.908Z,13.98
2022-11-19T06:49:57.277Z,13.99
2022-11-19T06:52:23.601Z,14.00
2022-11-19T06:54:50.023Z,13.98
2022-11-19T06:57:16.343Z,14.00
2022-11-19T06:59:42.705Z,14.00
2022-11-19T07:02:09.128Z,14.00
2022-11-19T07:04:35.424Z,14.01
2022-11-19T07:07:01.826Z,14.07
2022-11-19T07:09:28.194Z,14.11
2022-11-19T07:11:54.505Z,14.16
2022-11-19T07:14:21.024Z,14.26
2022-11-19T07:16:47.311Z,14.48
2022-11-19T07:19:13.731Z,14.91
2022-11-19T07:21:40.061Z,15.64
2022-11-19T07:24:06.478Z,16.48
2022-11-19T07:26:32.829Z,17.17
2022-11-19T07:29:03.281Z,17.57
2022-11-19T07:31:25.546Z,18.05
2022-11-19T07:33:51.894Z,18.62
2022-11-19T07:36:18.789Z,18.77
2022-11-19T07:38:44.611Z,18.78
2022-11-19T07:41:10.938Z,19.00
2022-11-19T07:43:37.290Z,18.89
2022-11-19T07:46:03.646Z,18.77
2022-11-19T07:48:30.028Z,18.74
2022-11-19T07:50:56.743Z,18.89
2022-11-19T07:53:22.778Z,19.34
2022-11-19T07:55:49.091Z,19.75
2022-11-19T07:58:15.480Z,19.89
2022-11-19T08:00:41.793Z,19.84
2022-11-19T08:03:08.138Z,19.87
2022-11-19T08:05:34.467Z,19.73
2022-11-19T08:08:00.783Z,19.44
2022-11-19T08:10:31.538Z,18.99
2022-11-19T08:12:53.526Z,18.68
2022-11-19T08:15:19.906Z,18.30
2022-11-19T08:17:46.261Z,18.12
2022-11-19T08:20:12.678Z,17.84
2022-11-19T08:22:38.989Z,17.66
2022-11-19T08:25:05.337Z,17.53
2022-11-19T08:27:31.750Z,17.46
2022-11-19T08:29:58.131Z,17.35
2022-11-19T08:32:24.447Z,17.57
2022-11-19T08:34:50.834Z,17.72
2022-11-19T08:37:17.205Z,17.77
2022-11-19T08:39:43.626Z,17.66
2022-11-19T08:42:09.967Z,17.56
2022-11-19T08:44:36.349Z,17.44
2022-11-19T08:47:02.720Z,17.43
2022-11-19T08:49:29.060Z,17.39
2022-11-19T08:51:55.435Z,17.49
2022-11-19T08:54:22.292Z,17.51
2022-11-19T08:56:48.476Z,17.69
2022-11-19T08:59:14.853Z,17.88
2022-11-19T09:01:41.210Z,17.86
2022-11-19T09:04:07.584Z,17.86
2022-11-19T09:06:33.896Z,17.73
2022-11-19T09:09:00.245Z,17.61
2022-11-19T09:11:26.606Z,17.98
2022-11-19T09:13:52.958Z,18.53
2022-11-19T09:16:19.319Z,18.89
2022-11-19T09:18:45.693Z,18.98
2022-11-19T09:21:12.031Z,19.24
2022-11-19T09:23:38.411Z,19.38
2022-11-19T09:26:04.722Z,19.41
2022-11-19T09:28:31.081Z,19.48
2022-11-19T09:30:57.398Z,19.86
2022-11-19T09:33:23.750Z,20.38
2022-11-19T09:35:50.102Z,20.85
2022-11-19T09:38:16.482Z,21.06
2022-11-19T09:40:42.799Z,21.40
2022-11-19T09:43:13.938Z,21.73
2022-11-19T09:45:35.540Z,21.87
2022-11-19T09:48:01.876Z,22.19
2022-11-19T09:50:28.235Z,22.71
2022-11-19T09:52:54.563Z,23.04
2022-11-19T09:55:20.928Z,23.05
2022-11-19T09:57:47.283Z,22.95
2022-11-19T10:00:13.615Z,22.82
2022-11-19T10:02:40.030Z,23.01
2022-11-19T10:05:06.383Z,23.36
2022-11-19T10:07:32.830Z,23.65
2022-11-19T10:09:59.051Z,23.80
2022-11-19T10:12:25.427Z,23.89
2022-11-19T10:14:51.763Z,24.23
2022-11-19T10:17:18.121Z,24.51
2022-11-19T10:19:44.501Z,24.65
2022-11-19T10:22:10.844Z,24.86
2022-11-19T10:24:37.265Z,24.60
2022-11-19T10:27:08.544Z,24.05
2022-11-19T10:29:29.972Z,23.63
2022-11-19T10:31:56.316Z,23.48
2022-11-19T10:34:22.711Z,23.43
2022-11-19T10:36:49.084Z,23.24
2022-11-19T10:39:15.446Z,23.10
2022-11-19T10:41:41.821Z,23.06
2022-11-19T10:44:08.172Z,23.15
2022-11-19T10:46:34.526Z,23.23
2022-11-19T10:49:00.848Z,23.40
2022-11-19T10:51:27.233Z,23.74
2022-11-19T10:53:53.621Z,24.06
2022-11-19T10:56:19.953Z,24.25
2022-11-19T10:58:46.271Z,24.32
2022-11-19T11:01:12.652Z,24.21
2022-11-19T11:03:38.944Z,23.96
2022-11-19T11:06:05.353Z,23.75
2022-11-19T11:08:31.641Z,23.68
2022-11-19T11:10:58.023Z,23.66
2022-11-19T11:13:24.393Z,23.65
2022-11-19T11:15:50.803Z,23.82
2022-11-19T11:18:17.114Z,24.09
2022-11-19T11:20:43.494Z,24.50
2022-11-19T11:23:09.808Z,24.70
2022-11-19T11:25:36.161Z,24.84
2022-11-19T11:28:02.488Z,25.12
2022-11-19T11:30:28.877Z,25.33
2022-11-19T11:32:55.202Z,25.14
2022-11-19T11:35:21.542Z,24.78
2022-11-19T11:37:47.903Z,24.59
2022-11-19T11:40:14.354Z,24.49
2022-11-19T11:42:40.597Z,24.68
2022-11-19T11:45:06.938Z,24.79
2022-11-19T11:47:33.304Z,24.65
2022-11-19T11:49:59.700Z,24.42
2022-11-19T11:52:26.049Z,24.33
2022-11-19T11:54:52.390Z,24.30
2022-11-19T11:57:18.802Z,24.05
2022-11-19T11:59:45.208Z,23.79
2022-11-19T12:02:11.628Z,23.58
2022-11-19T12:04:37.984Z,23.38
2022-11-19T12:07:04.401Z,23.24
2022-11-19T12:09:30.771Z,23.09
2022-11-19T12:11:57.113Z,22.99
2022-11-19T12:14:23.447Z,22.83
2022-11-19T12:16:49.805Z,22.70
2022-11-19T12:19:16.202Z,22.56
2022-11-19T12:21:42.564Z,22.46
2022-11-19T12:24:08.905Z,22.42
2022-11-19T12:26:35.266Z,22.38
2022-11-19T12:29:01.633Z,22.31
2022-11-19T12:31:30.060Z,22.23
2022-11-19T12:33:54.370Z,22.17
2022-11-19T12:36:20.686Z,22.09
2022-11-19T12:38:47.045Z,21.98
2022-11-19T12:41:13.386Z,21.87
2022-11-19T12:43:39.753Z,21.74
2022-11-19T12:46:06.177Z,21.56
2022-11-19T12:48:32.487Z,21.33
2022-11-19T12:50:58.824Z,21.26
2022-11-19T12:53:25.196Z,21.16
2022-11-19T12:55:51.510Z,21.11
2022-11-19T12:58:17.859Z,21.05
2022-11-19T13:00:44.190Z,20.94
2022-11-19T13:03:10.752Z,20.84
2022-11-19T13:05:37.097Z,20.78
2022-11-19T13:08:03.465Z,20.66
2022-11-19T13:10:29.852Z,20.56
2022-11-19T13:12:56.220Z,20.47
2022-11-19T13:15:22.574Z,20.40
2022-11-19T13:17:48.939Z,20.29
2022-11-19T13:20:15.276Z,20.19
2022-11-19T13:22:41.633Z,20.12
2022-11-19T13:25:07.957Z,20.03
2022-11-19T13:27:34.328Z,19.91
2022-11-19T13:30:00.688Z,19.86
2022-11-19T13:32:27.063Z,19.81
2022-11-19T13:34:53.454Z,19.75
2022-11-19T13:37:19.831Z,19.69
2022-11-19T13:39:46.235Z,19.63
2022-11-19T13:42:12.530Z,19.61
2022-11-19T13:44:38.887Z,19.56
2022-11-19T13:47:05.304Z,19.53
2022-11-19T13:49:31.670Z,19.50
2022-11-19T13:51:58.047Z,19.45
2022-11-19T13:54:24.407Z,19.43
2022-11-19T13:56:50.749Z,19.37
2022-11-19T13:59:17.253Z,19.32
2022-11-19T14:01:43.546Z,19.27
2022-11-19T14:04:09.816Z,19.27
2022-11-19T14:06:36.193Z,19.24
2022-11-19T14:09:02.549Z,19.18
2022-11-19T14:11:28.921Z,19.13
2022-11-19T14:13:55.295Z,19.04
2022-11-19T14:16:21.647Z,19.01
2022-11-19T14:18:53.068Z,18.98
2022-11-19T14:21:14.358Z,18.97
2022-11-19T14:23:40.719Z,18.94
2022-11-19T14:26:07.072Z,18.92
2022-11-19T14:28:33.396Z,18.89
2022-11-19T14:30:59.764Z,18.87
2022-11-19T14:33:26.086Z,18.83
2022-11-19T14:35:52.492Z,18.79
2022-11-19T14:38:18.810Z,18.75
2022-11-19T14:40:45.181Z,18.72
2022-11-19T14:43:11.535Z,18.66
2022-11-19T14:45:37.907Z,18.62
2022-11-19T14:48:04.301Z,18.59
2022-11-19T14:50:30.644Z,18.54
2022-11-19T14:52:56.998Z,18.47
2022-11-19T14:55:23.370Z,18.43
2022-11-19T14:57:49.697Z,18.38
2022-11-19T15:00:16.073Z,18.34
2022-11-19T15:02:42.389Z,18.32
2022-11-19T15:05:08.730Z,18.29
2022-11-19T15:07:35.195Z,18.27
2022-11-19T15:10:01.532Z,18.23
2022-11-19T15:12:27.802Z,18.20
2022-11-19T15:14:54.169Z,18.18
2022-11-19T15:17:20.490Z,18.14
2022-11-19T15:19:46.859Z,18.10
2022-11-19T15:22:13.216Z,18.04
2022-11-19T15:24:39.591Z,18.03
2022-11-19T15:27:05.955Z,18.01
2022-11-19T15:29:32.317Z,17.95
2022-11-19T15:31:58.659Z,17.92
2022-11-19T15:34:25.019Z,17.89
2022-11-19T15:36:51.406Z,17.88
2022-11-19T15:39:18.362Z,17.86
2022-11-19T15:41:44.159Z,17.86
2022-11-19T15:44:10.566Z,17.84
2022-11-19T15:46:36.876Z,17.82
2022-11-19T15:49:03.243Z,17.79
2022-11-19T15:51:29.608Z,17.77
2022-11-19T15:53:55.943Z,17.76
2022-11-19T15:56:22.267Z,17.73
2022-11-19T15:58:48.607Z,17.69
2022-11-19T16:01:15.020Z,17.62
2022-11-19T16:03:41.354Z,17.59
2022-11-19T16:06:07.698Z,17.56
2022-11-19T16:08:34.058Z,17.54
2022-11-19T16:11:00.374Z,17.53
2022-11-19T16:13:26.779Z,17.51
2022-11-19T16:15:53.096Z,17.49
2022-11-19T16:18:19.471Z,17.46
2022-11-19T16:20:45.847Z,17.43
2022-11-19T16:23:12.216Z,17.41
2022-11-19T16:25:38.551Z,17.40
2022-11-19T16:28:04.902Z,17.39
2022-11-19T16:30:31.272Z,17.36
2022-11-19T16:32:57.603Z,17.35
2022-11-19T16:35:23.926Z,17.33
2022-11-19T16:37:50.376Z,17.32
2022-11-19T16:40:16.655Z,17.29
2022-11-19T16:42:43.038Z,17.25
2022-11-19T16:45:09.398Z,17.22
2022-11-19T16:47:35.742Z,17.21
2022-11-19T16:50:02.129Z,17.19
2022-11-19T16:52:28.483Z,17.16
2022-11-19T16:54:54.823Z,17.14
2022-11-19T16:57:21.232Z,17.11
2022-11-19T16:59:47.557Z,17.10
2022-11-19T17:02:13.943Z,17.08
2022-11-19T17:04:40.340Z,17.06
2022-11-19T17:07:06.743Z,17.05
2022-11-19T17:09:33.064Z,17.05
2022-11-19T17:11:59.431Z,17.05
2022-11-19T17:14:25.770Z,17.05
2022-11-19T17:16:52.149Z,17.04
2022-11-19T17:19:18.502Z,17.09
2022-11-19T17:21:44.863Z,17.21
2022-11-19T17:24:11.201Z,17.21
2022-11-19T17:26:37.550Z,17.16
2022-11-19T17:29:03.893Z,17.10
2022-11-19T17:31:30.237Z,17.07
2022-11-19T17:33:56.577Z,17.08
2022-11-19T17:36:22.952Z,17.09
2022-11-19T17:38:49.319Z,17.09
2022-11-19T17:41:15.722Z,17.11
2022-11-19T17:43:42.050Z,17.06
2022-11-19T17:46:08.400Z,17.03
2022-11-19T17:48:34.739Z,17.00
2022-11-19T17:51:01.091Z,16.99
2022-11-19T17:53:27.414Z,16.98
2022-11-19T17:55:53.779Z,16.96
2022-11-19T17:58:20.124Z,16.94
2022-11-19T18:00:46.486Z,16.92
2022-11-19T18:03:12.803Z,16.92
2022-11-19T18:05:39.219Z,16.91
2022-11-19T18:08:05.553Z,16.88
2022-11-19T18:10:31.950Z,16.87
2022-11-19T18:12:58.270Z,16.85
2022-11-19T18:15:24.636Z,16.83
2022-11-19T18:17:50.987Z,16.81
2022-11-19T18:20:17.324Z,16.79
2022-11-19T18:22:43.671Z,16.77
2022-11-19T18:25:10.039Z,16.74
2022-11-19T18:27:36.384Z,16.73
2022-11-19T18:30:02.771Z,16.68
2022-11-19T18:32:29.132Z,16.65
2022-11-19T18:34:59.212Z,16.62
2022-11-19T18:37:22.891Z,16.60
2022-11-19T18:39:49.223Z,16.58
2022-11-19T18:42:15.595Z,16.55
2022-11-19T18:44:41.933Z,16.47
2022-11-19T18:47:08.314Z,16.34
2022-11-19T18:49:34.703Z,16.23
2022-11-19T18:52:01.058Z,16.28
2022-11-19T18:54:27.418Z,16.34
2022-11-19T18:56:53.769Z,16.30
2022-11-19T18:59:20.263Z,16.24
2022-11-19T19:01:46.477Z,16.25
2022-11-19T19:04:14.456Z,16.26
2022-11-19T19:06:39.171Z,16.28
2022-11-19T19:09:05.547Z,16.25
2022-11-19T19:11:31.930Z,16.25
2022-11-19T19:13:58.257Z,16.20
2022-11-19T19:16:24.638Z,16.09
2022-11-19T19:18:50.993Z,16.05
2022-11-19T19:21:17.324Z,16.08
2022-11-19T19:23:43.708Z,16.12
2022-11-19T19:26:10.048Z,16.15
2022-11-19T19:28:36.404Z,16.14
2022-11-19T19:31:02.796Z,16.11
2022-11-19T19:33:29.139Z,16.02
2022-11-19T19:35:55.521Z,15.99
2022-11-19T19:38:21.875Z,16.02
2022-11-19T19:40:48.250Z,16.05
2022-11-19T19:43:14.566Z,16.08
2022-11-19T19:45:40.942Z,16.08
2022-11-19T19:48:07.317Z,16.09
2022-11-19T19:50:33.658Z,16.08
2022-11-19T19:52:59.980Z,16.07
2022-11-19T19:55:26.344Z,16.05
2022-11-19T19:57:52.703Z,16.03
2022-11-19T20:00:19.038Z,16.03
2022-11-19T20:02:45.421Z,16.03
2022-11-19T20:05:11.760Z,16.02
2022-11-19T20:07:38.127Z,16.00
2022-11-19T20:10:04.459Z,15.98
2022-11-19T20:12:30.785Z,15.99
2022-11-19T20:14:57.187Z,16.00
2022-11-19T20:17:23.506Z,15.98
2022-11-19T20:19:49.897Z,15.97
2022-11-19T20:22:16.236Z,15.97
2022-11-19T20:24:42.597Z,15.96
2022-11-19T20:27:08.926Z,15.95
2022-11-19T20:29:35.277Z,15.95
2022-11-19T20:32:01.658Z,15.96
2022-11-19T20:34:27.999Z,15.95
2022-11-19T20:36:54.325Z,15.95
2022-11-19T20:39:21.005Z,15.95
2022-11-19T20:41:47.085Z,15.95
2022-11-19T20:44:13.450Z,15.93
2022-11-19T20:46:39.768Z,15.91
2022-11-19T20:49:06.110Z,15.88
2022-11-19T20:51:32.469Z,15.89
2022-11-19T20:53:58.861Z,15.89
2022-11-19T20:56:25.209Z,15.91
2022-11-19T20:58:51.570Z,15.90
2022-11-19T21:01:17.916Z,15.89
2022-11-19T21:03:44.277Z,15.86
2022-11-19T21:06:10.594Z,15.89
2022-11-19T21:08:37.186Z,15.88
2022-11-19T21:11:03.334Z,15.85
2022-11-19T21:13:29.709Z,15.81
2022-11-19T21:15:56.024Z,15.82
2022-11-19T21:18:24.384Z,15.82
2022-11-19T21:20:48.692Z,15.79
2022-11-19T21:23:15.042Z,15.77
2022-11-19T21:25:41.410Z,15.77
2022-11-19T21:28:07.801Z,15.78
2022-11-19T21:30:34.197Z,15.76
2022-11-19T21:33:00.543Z,15.75
2022-11-19T21:35:26.867Z,15.74
2022-11-19T21:37:53.256Z,15.73
2022-11-19T21:40:19.584Z,15.70
2022-11-19T21:42:45.985Z,15.70
2022-11-19T21:45:12.336Z,15.71
2022-11-19T21:47:38.757Z,15.70
2022-11-19T21:50:05.118Z,15.68
2022-11-19T21:52:31.441Z,15.67
2022-11-19T21:54:57.773Z,15.68
2022-11-19T21:57:24.124Z,15.69
2022-11-19T21:59:50.481Z,15.68
2022-11-19T22:02:16.838Z,15.68
2022-11-19T22:04:43.199Z,15.67
2022-11-19T22:07:09.632Z,15.68
2022-11-19T22:09:35.943Z,15.69
2022-11-19T22:12:02.337Z,15.69
2022-11-19T22:14:28.660Z,15.67
2022-11-19T22:16:55.009Z,15.68
2022-11-19T22:19:21.417Z,15.69
2022-11-19T22:21:47.743Z,15.69
2022-11-19T22:24:14.099Z,15.67
2022-11-19T22:26:40.482Z,15.66
2022-11-19T22:29:06.866Z,15.65
2022-11-19T22:31:33.251Z,15.63
2022-11-19T22:33:59.572Z,15.62
2022-11-19T22:36:25.960Z,15.62
2022-11-19T22:38:52.378Z,15.63
2022-11-19T22:41:18.696Z,15.63
2022-11-19T22:43:45.025Z,15.62
2022-11-19T22:46:11.382Z,15.63
2022-11-19T22:48:37.703Z,15.63
2022-11-19T22:51:04.102Z,15.64
2022-11-19T22:53:30.492Z,15.65
2022-11-19T22:55:56.869Z,15.65
2022-11-19T22:58:23.189Z,15.65
2022-11-19T23:00:49.631Z,15.67
2022-11-19T23:03:15.942Z,15.67
2022-11-19T23:05:42.291Z,15.70
2022-11-19T23:08:08.613Z,15.72
2022-11-19T23:10:35.018Z,15.72
2022-11-19T23:13:01.333Z,15.72
2022-11-19T23:15:27.685Z,15.72
2022-11-19T23:17:54.051Z,15.75
2022-11-19T23:20:20.468Z,15.75
2022-11-19T23:22:46.789Z,15.72
2022-11-19T23:25:13.172Z,15.72
2022-11-19T23:27:39.501Z,15.72
2022-11-19T23:30:05.888Z,15.73
2022-11-19T23:32:32.261Z,15.76
2022-11-19T23:34:58.681Z,15.80
2022-11-19T23:37:24.993Z,15.82
2022-11-19T23:39:51.380Z,15.82
2022-11-19T23:42:17.747Z,15.83
2022-11-19T23:44:44.137Z,15.83
2022-11-19T23:47:10.499Z,15.84
2022-11-19T23:49:36.894Z,15.83
2022-11-19T23:52:03.251Z,15.84
2022-11-19T23:54:29.665Z,15.83
2022-11-19T23:56:56.033Z,15.83
2022-11-19T23:59:25.589Z,15.83
